Airfield :
LOGIN :

Register | Disclaimer

   EN    FR    IT 

 










Legend :    VFR   Marginal VFR   IFR   Intensive IFR   Very Intensive IFR
Visi :
Ceiling :
>= 8 km
>= 3000ft
5 to 8 km
1000 to 3000 ft
1500m to 5 km
500 to 1000 ft
800 to 1500m
200 to 500 ft
< 800m
< 200 ft
Symbols :   Thunderstorms  Fog  Heavy snow  Heavy precipitations  Wind > 20 kt
SIGMETs :     Misc.  Thunderstorms  Icing  Turbulence  Mountain Waves  Volcanic Ashes







- Airport Elevation : 144 ft
- IATA code : PGF
- Download approach charts


LFMP - Perpignan

CURRENT METAR :
  • 220400Z AUTO 26002KT CAVOK 11/09 Q1019 NOSIG

EXPIRED METARs :
  • 220330Z AUTO 00000KT CAVOK 12/09 Q1020 NOSIG
  • 220300Z AUTO 00000KT CAVOK 12/09 Q1020 NOSIG
  • 220230Z AUTO VRB01KT CAVOK 12/09 Q1020
  • 220200Z AUTO 25003KT CAVOK 12/09 Q1020
  • 220130Z AUTO 23001KT CAVOK 12/09 Q1020

TAF TAF LFMP
Valid from the 22 at 03:00 until the 23 at 03:00 UTC


220200Z 2203/2303 24004KT CAVOK
BECMG 2209/2212 09010KT
BECMG 2220/2222 28005KT
ATIS : +33 4 68 63 75 12
No reported NOTAMs for that airfield.



MET'MAP, your aeronautical weather chart ! - Copyright ORBIFLY December 2007 - Disclaimer

ORBIFLY MET'MAP TEAM :

Programming & Development : Alexandra Zaïnal
Concept & Development : Baudouin d'Aumeries
Co-Development & Prog : Marc-Olivier Méhu
Technical & hardware support : Manuel Goepfert

Contact : metmap@orbifly.com




SOURCES & CREDITS :

   NOAA